sensor_id;sensor_type;location;lat;lon;timestamp;temperature;humidity
2995;DHT22;35277;49.890;8.222;2023-02-15T00:01:40;21.80;64.60
2995;DHT22;35277;49.890;8.222;2023-02-15T00:04:08;21.80;64.60
2995;DHT22;35277;49.890;8.222;2023-02-15T00:06:38;21.80;64.60
2995;DHT22;35277;49.890;8.222;2023-02-15T00:09:05;21.80;64.60
2995;DHT22;35277;49.890;8.222;2023-02-15T00:11:33;21.80;64.50
2995;DHT22;35277;49.890;8.222;2023-02-15T00:14:11;21.80;64.60
2995;DHT22;35277;49.890;8.222;2023-02-15T00:16:41;21.80;64.50
2995;DHT22;35277;49.890;8.222;2023-02-15T00:19:11;21.80;64.50
2995;DHT22;35277;49.890;8.222;2023-02-15T00:21:41;21.80;64.50
2995;DHT22;35277;49.890;8.222;2023-02-15T00:24:11;21.80;64.50
2995;DHT22;35277;49.890;8.222;2023-02-15T00:26:40;21.80;64.50
2995;DHT22;35277;49.890;8.222;2023-02-15T00:29:09;21.70;64.40
2995;DHT22;35277;49.890;8.222;2023-02-15T00:31:37;21.70;64.40
2995;DHT22;35277;49.890;8.222;2023-02-15T00:34:07;21.80;64.50
2995;DHT22;35277;49.890;8.222;2023-02-15T00:36:35;21.80;64.50
2995;DHT22;35277;49.890;8.222;2023-02-15T00:39:04;21.70;64.40
2995;DHT22;35277;49.890;8.222;2023-02-15T00:41:34;21.70;64.40
2995;DHT22;35277;49.890;8.222;2023-02-15T00:44:03;21.70;64.40
2995;DHT22;35277;49.890;8.222;2023-02-15T00:46:32;21.70;64.40
2995;DHT22;35277;49.890;8.222;2023-02-15T00:49:00;21.70;64.40
2995;DHT22;35277;49.890;8.222;2023-02-15T00:51:28;21.70;64.40
2995;DHT22;35277;49.890;8.222;2023-02-15T00:53:56;21.70;64.40
2995;DHT22;35277;49.890;8.222;2023-02-15T00:56:25;21.70;64.50
2995;DHT22;35277;49.890;8.222;2023-02-15T00:58:54;21.70;64.40
2995;DHT22;35277;49.890;8.222;2023-02-15T01:01:22;21.70;64.40
2995;DHT22;35277;49.890;8.222;2023-02-15T01:03:52;21.70;64.40
2995;DHT22;35277;49.890;8.222;2023-02-15T01:06:20;21.70;64.40
2995;DHT22;35277;49.890;8.222;2023-02-15T01:08:47;21.80;64.50
2995;DHT22;35277;49.890;8.222;2023-02-15T01:11:17;21.70;64.40
2995;DHT22;35277;49.890;8.222;2023-02-15T01:13:52;21.70;64.50
2995;DHT22;35277;49.890;8.222;2023-02-15T01:16:21;21.70;64.40
2995;DHT22;35277;49.890;8.222;2023-02-15T01:18:49;21.80;64.50
2995;DHT22;35277;49.890;8.222;2023-02-15T01:21:19;21.70;64.40
2995;DHT22;35277;49.890;8.222;2023-02-15T01:23:47;21.80;65.40
2995;DHT22;35277;49.890;8.222;2023-02-15T01:26:16;21.70;64.50
2995;DHT22;35277;49.890;8.222;2023-02-15T01:28:44;21.80;64.50
2995;DHT22;35277;49.890;8.222;2023-02-15T01:31:15;21.80;64.60
2995;DHT22;35277;49.890;8.222;2023-02-15T01:33:44;21.70;64.50
2995;DHT22;35277;49.890;8.222;2023-02-15T01:36:13;21.70;64.50
2995;DHT22;35277;49.890;8.222;2023-02-15T01:38:41;21.70;64.40
2995;DHT22;35277;49.890;8.222;2023-02-15T01:41:09;21.70;64.40
2995;DHT22;35277;49.890;8.222;2023-02-15T01:43:52;21.70;64.50
2995;DHT22;35277;49.890;8.222;2023-02-15T01:46:24;21.80;64.50
2995;DHT22;35277;49.890;8.222;2023-02-15T01:48:58;21.70;64.50
2995;DHT22;35277;49.890;8.222;2023-02-15T01:51:30;21.80;64.50
2995;DHT22;35277;49.890;8.222;2023-02-15T01:54:02;21.70;64.50
2995;DHT22;35277;49.890;8.222;2023-02-15T01:56:36;21.80;64.60
2995;DHT22;35277;49.890;8.222;2023-02-15T01:59:09;21.70;64.50
2995;DHT22;35277;49.890;8.222;2023-02-15T02:01:40;21.70;64.50
2995;DHT22;35277;49.890;8.222;2023-02-15T02:04:13;21.80;64.60
2995;DHT22;35277;49.890;8.222;2023-02-15T02:06:44;21.80;64.60
2995;DHT22;35277;49.890;8.222;2023-02-15T02:09:13;21.80;64.50
2995;DHT22;35277;49.890;8.222;2023-02-15T02:11:43;21.80;64.60
2995;DHT22;35277;49.890;8.222;2023-02-15T02:14:12;21.80;64.60
2995;DHT22;35277;49.890;8.222;2023-02-15T02:16:46;21.80;64.60
2995;DHT22;35277;49.890;8.222;2023-02-15T02:19:37;21.80;64.60
2995;DHT22;35277;49.890;8.222;2023-02-15T02:22:34;21.80;64.60
2995;DHT22;35277;49.890;8.222;2023-02-15T02:25:17;21.80;64.60
2995;DHT22;35277;49.890;8.222;2023-02-15T02:27:56;21.80;64.60
2995;DHT22;35277;49.890;8.222;2023-02-15T02:30:53;21.80;65.40
2995;DHT22;35277;49.890;8.222;2023-02-15T02:33:39;21.80;64.60
2995;DHT22;35277;49.890;8.222;2023-02-15T02:36:24;21.70;64.50
2995;DHT22;35277;49.890;8.222;2023-02-15T02:39:06;21.70;64.50
2995;DHT22;35277;49.890;8.222;2023-02-15T02:41:40;21.80;64.60
2995;DHT22;35277;49.890;8.222;2023-02-15T02:44:13;21.70;64.50
2995;DHT22;35277;49.890;8.222;2023-02-15T02:46:51;21.70;64.50
2995;DHT22;35277;49.890;8.222;2023-02-15T02:49:33;21.70;64.50
2995;DHT22;35277;49.890;8.222;2023-02-15T02:52:03;21.70;64.50
2995;DHT22;35277;49.890;8.222;2023-02-15T02:54:33;21.80;64.60
2995;DHT22;35277;49.890;8.222;2023-02-15T02:57:03;21.80;64.70
2995;DHT22;35277;49.890;8.222;2023-02-15T02:59:37;21.80;64.70
2995;DHT22;35277;49.890;8.222;2023-02-15T03:02:12;21.80;64.70
2995;DHT22;35277;49.890;8.222;2023-02-15T03:04:45;21.80;64.60
2995;DHT22;35277;49.890;8.222;2023-02-15T03:07:16;21.80;64.70
2995;DHT22;35277;49.890;8.222;2023-02-15T03:09:50;21.80;64.70
2995;DHT22;35277;49.890;8.222;2023-02-15T03:12:21;21.80;64.70
2995;DHT22;35277;49.890;8.222;2023-02-15T03:14:52;21.80;64.60
2995;DHT22;35277;49.890;8.222;2023-02-15T03:17:22;21.80;64.70
2995;DHT22;35277;49.890;8.222;2023-02-15T03:19:54;21.80;64.70
2995;DHT22;35277;49.890;8.222;2023-02-15T03:22:26;21.80;64.70
2995;DHT22;35277;49.890;8.222;2023-02-15T03:24:57;21.80;64.70
2995;DHT22;35277;49.890;8.222;2023-02-15T03:27:31;21.80;64.70
2995;DHT22;35277;49.890;8.222;2023-02-15T03:30:02;21.80;64.70
2995;DHT22;35277;49.890;8.222;2023-02-15T03:32:33;21.80;64.70
2995;DHT22;35277;49.890;8.222;2023-02-15T03:35:03;21.80;64.70
2995;DHT22;35277;49.890;8.222;2023-02-15T03:37:34;21.80;64.70
2995;DHT22;35277;49.890;8.222;2023-02-15T03:40:06;21.80;64.70
2995;DHT22;35277;49.890;8.222;2023-02-15T03:42:59;21.80;64.70
2995;DHT22;35277;49.890;8.222;2023-02-15T03:45:31;21.80;64.70
2995;DHT22;35277;49.890;8.222;2023-02-15T03:48:01;21.80;64.80
2995;DHT22;35277;49.890;8.222;2023-02-15T03:50:34;21.80;64.70
2995;DHT22;35277;49.890;8.222;2023-02-15T03:53:22;21.80;64.80
2995;DHT22;35277;49.890;8.222;2023-02-15T03:55:54;21.80;64.70
2995;DHT22;35277;49.890;8.222;2023-02-15T03:58:22;21.80;64.70
2995;DHT22;35277;49.890;8.222;2023-02-15T04:01:13;21.80;64.80
2995;DHT22;35277;49.890;8.222;2023-02-15T04:04:05;21.80;64.80
2995;DHT22;35277;49.890;8.222;2023-02-15T04:06:36;21.80;64.80
2995;DHT22;35277;49.890;8.222;2023-02-15T04:09:04;21.80;64.80
2995;DHT22;35277;49.890;8.222;2023-02-15T04:11:49;21.80;64.80
2995;DHT22;35277;49.890;8.222;2023-02-15T04:14:17;21.80;64.80
2995;DHT22;35277;49.890;8.222;2023-02-15T04:17:05;21.80;64.80
2995;DHT22;35277;49.890;8.222;2023-02-15T04:19:32;21.80;64.80
2995;DHT22;35277;49.890;8.222;2023-02-15T04:22:19;21.80;64.80
2995;DHT22;35277;49.890;8.222;2023-02-15T04:25:05;21.80;64.80
2995;DHT22;35277;49.890;8.222;2023-02-15T04:27:41;21.70;64.70
2995;DHT22;35277;49.890;8.222;2023-02-15T04:30:10;21.80;64.80
2995;DHT22;35277;49.890;8.222;2023-02-15T04:32:38;21.70;64.70
2995;DHT22;35277;49.890;8.222;2023-02-15T04:35:06;21.80;64.90
2995;DHT22;35277;49.890;8.222;2023-02-15T04:37:35;21.80;64.80
2995;DHT22;35277;49.890;8.222;2023-02-15T04:40:04;21.70;64.80
2995;DHT22;35277;49.890;8.222;2023-02-15T04:42:32;21.80;64.80
2995;DHT22;35277;49.890;8.222;2023-02-15T04:45:00;21.70;64.70
2995;DHT22;35277;49.890;8.222;2023-02-15T04:47:28;21.80;64.90
2995;DHT22;35277;49.890;8.222;2023-02-15T04:49:56;21.80;64.90
2995;DHT22;35277;49.890;8.222;2023-02-15T04:52:24;21.80;64.90
2995;DHT22;35277;49.890;8.222;2023-02-15T04:54:53;21.80;64.90
2995;DHT22;35277;49.890;8.222;2023-02-15T04:57:20;21.80;65.00
2995;DHT22;35277;49.890;8.222;2023-02-15T04:59:48;21.80;65.10
2995;DHT22;35277;49.890;8.222;2023-02-15T05:02:16;21.80;65.20
2995;DHT22;35277;49.890;8.222;2023-02-15T05:04:44;21.80;65.40
2995;DHT22;35277;49.890;8.222;2023-02-15T05:07:11;21.80;65.40
2995;DHT22;35277;49.890;8.222;2023-02-15T05:09:41;21.80;65.40
2995;DHT22;35277;49.890;8.222;2023-02-15T05:12:10;21.80;65.50
2995;DHT22;35277;49.890;8.222;2023-02-15T05:14:37;21.90;65.60
2995;DHT22;35277;49.890;8.222;2023-02-15T05:17:05;21.90;65.60
2995;DHT22;35277;49.890;8.222;2023-02-15T05:19:33;21.90;65.60
2995;DHT22;35277;49.890;8.222;2023-02-15T05:22:01;21.90;65.60
2995;DHT22;35277;49.890;8.222;2023-02-15T05:24:28;21.90;65.50
2995;DHT22;35277;49.890;8.222;2023-02-15T05:27:15;21.90;65.50
2995;DHT22;35277;49.890;8.222;2023-02-15T05:30:01;21.80;65.40
2995;DHT22;35277;49.890;8.222;2023-02-15T05:32:29;21.80;65.30
2995;DHT22;35277;49.890;8.222;2023-02-15T05:34:57;21.80;65.30
2995;DHT22;35277;49.890;8.222;2023-02-15T05:37:25;21.80;65.30
2995;DHT22;35277;49.890;8.222;2023-02-15T05:39:52;21.80;65.30
2995;DHT22;35277;49.890;8.222;2023-02-15T05:42:21;21.80;65.40
2995;DHT22;35277;49.890;8.222;2023-02-15T05:44:49;21.80;65.40
2995;DHT22;35277;49.890;8.222;2023-02-15T05:47:17;21.80;65.50
2995;DHT22;35277;49.890;8.222;2023-02-15T05:49:44;21.80;65.50
2995;DHT22;35277;49.890;8.222;2023-02-15T05:52:12;21.90;65.60
2995;DHT22;35277;49.890;8.222;2023-02-15T05:54:40;21.80;65.60
2995;DHT22;35277;49.890;8.222;2023-02-15T05:57:08;21.80;65.60
2995;DHT22;35277;49.890;8.222;2023-02-15T05:59:37;21.80;65.50
2995;DHT22;35277;49.890;8.222;2023-02-15T06:02:04;21.80;65.60
2995;DHT22;35277;49.890;8.222;2023-02-15T06:04:33;21.80;65.60
2995;DHT22;35277;49.890;8.222;2023-02-15T06:07:01;21.80;65.50
2995;DHT22;35277;49.890;8.222;2023-02-15T06:09:29;21.80;65.50
2995;DHT22;35277;49.890;8.222;2023-02-15T06:11:56;21.80;65.50
2995;DHT22;35277;49.890;8.222;2023-02-15T06:14:24;21.80;65.30
2995;DHT22;35277;49.890;8.222;2023-02-15T06:16:53;21.80;65.10
2995;DHT22;35277;49.890;8.222;2023-02-15T06:19:21;21.70;64.70
2995;DHT22;35277;49.890;8.222;2023-02-15T06:21:49;21.70;64.50
2995;DHT22;35277;49.890;8.222;2023-02-15T06:24:17;21.70;64.10
2995;DHT22;35277;49.890;8.222;2023-02-15T06:26:44;21.70;63.90
2995;DHT22;35277;49.890;8.222;2023-02-15T06:29:12;21.70;63.70
2995;DHT22;35277;49.890;8.222;2023-02-15T06:31:40;21.60;63.20
2995;DHT22;35277;49.890;8.222;2023-02-15T06:34:09;21.60;63.10
2995;DHT22;35277;49.890;8.222;2023-02-15T06:36:37;21.60;62.90
2995;DHT22;35277;49.890;8.222;2023-02-15T06:39:05;21.60;62.70
2995;DHT22;35277;49.890;8.222;2023-02-15T06:41:32;21.60;62.60
2995;DHT22;35277;49.890;8.222;2023-02-15T06:44:00;21.60;62.50
2995;DHT22;35277;49.890;8.222;2023-02-15T06:46:28;21.60;62.40
2995;DHT22;35277;49.890;8.222;2023-02-15T06:48:56;21.60;62.30
2995;DHT22;35277;49.890;8.222;2023-02-15T06:51:25;21.60;62.20
2995;DHT22;35277;49.890;8.222;2023-02-15T06:53:53;21.60;62.10
2995;DHT22;35277;49.890;8.222;2023-02-15T06:56:21;21.60;62.10
2995;DHT22;35277;49.890;8.222;2023-02-15T06:58:48;21.60;62.10
2995;DHT22;35277;49.890;8.222;2023-02-15T07:01:16;21.60;62.00
2995;DHT22;35277;49.890;8.222;2023-02-15T07:03:44;21.60;61.90
2995;DHT22;35277;49.890;8.222;2023-02-15T07:06:12;21.60;61.90
2995;DHT22;35277;49.890;8.222;2023-02-15T07:08:41;21.60;61.90
2995;DHT22;35277;49.890;8.222;2023-02-15T07:11:09;21.60;61.80
2995;DHT22;35277;49.890;8.222;2023-02-15T07:13:54;21.60;61.80
2995;DHT22;35277;49.890;8.222;2023-02-15T07:16:21;21.60;61.70
2995;DHT22;35277;49.890;8.222;2023-02-15T07:18:49;21.60;61.70
2995;DHT22;35277;49.890;8.222;2023-02-15T07:21:17;21.60;61.70
2995;DHT22;35277;49.890;8.222;2023-02-15T07:23:46;21.60;61.60
2995;DHT22;35277;49.890;8.222;2023-02-15T07:26:14;21.60;61.60
2995;DHT22;35277;49.890;8.222;2023-02-15T07:28:41;21.60;61.60
2995;DHT22;35277;49.890;8.222;2023-02-15T07:31:09;21.60;61.60
2995;DHT22;35277;49.890;8.222;2023-02-15T07:33:37;21.60;61.60
2995;DHT22;35277;49.890;8.222;2023-02-15T07:36:05;21.60;61.50
2995;DHT22;35277;49.890;8.222;2023-02-15T07:38:35;21.60;61.60
2995;DHT22;35277;49.890;8.222;2023-02-15T07:41:06;21.60;61.50
2995;DHT22;35277;49.890;8.222;2023-02-15T07:43:35;21.60;61.50
2995;DHT22;35277;49.890;8.222;2023-02-15T07:46:05;21.60;61.50
2995;DHT22;35277;49.890;8.222;2023-02-15T07:48:34;21.60;61.60
2995;DHT22;35277;49.890;8.222;2023-02-15T07:51:03;21.60;61.60
2995;DHT22;35277;49.890;8.222;2023-02-15T07:53:32;21.70;61.70
2995;DHT22;35277;49.890;8.222;2023-02-15T07:56:01;21.60;61.60
2995;DHT22;35277;49.890;8.222;2023-02-15T07:58:30;21.60;61.60
2995;DHT22;35277;49.890;8.222;2023-02-15T08:01:12;21.70;61.70
2995;DHT22;35277;49.890;8.222;2023-02-15T08:03:40;21.70;61.70
2995;DHT22;35277;49.890;8.222;2023-02-15T08:06:08;21.70;61.70
2995;DHT22;35277;49.890;8.222;2023-02-15T08:08:37;21.70;61.70
2995;DHT22;35277;49.890;8.222;2023-02-15T08:11:09;21.70;61.70
2995;DHT22;35277;49.890;8.222;2023-02-15T08:13:58;21.70;61.70
2995;DHT22;35277;49.890;8.222;2023-02-15T08:16:29;21.70;61.70
2995;DHT22;35277;49.890;8.222;2023-02-15T08:18:58;21.70;61.70
2995;DHT22;35277;49.890;8.222;2023-02-15T08:21:28;21.70;61.70
2995;DHT22;35277;49.890;8.222;2023-02-15T08:23:56;21.70;61.70
2995;DHT22;35277;49.890;8.222;2023-02-15T08:26:25;21.70;61.70
2995;DHT22;35277;49.890;8.222;2023-02-15T08:28:56;21.70;61.70
2995;DHT22;35277;49.890;8.222;2023-02-15T08:31:23;21.70;61.70
2995;DHT22;35277;49.890;8.222;2023-02-15T08:33:53;21.70;61.70
2995;DHT22;35277;49.890;8.222;2023-02-15T08:36:22;21.70;61.60
2995;DHT22;35277;49.890;8.222;2023-02-15T08:38:51;21.70;61.60
2995;DHT22;35277;49.890;8.222;2023-02-15T08:41:20;21.70;61.60
2995;DHT22;35277;49.890;8.222;2023-02-15T08:43:49;21.70;61.60
2995;DHT22;35277;49.890;8.222;2023-02-15T08:46:20;21.70;61.60
2995;DHT22;35277;49.890;8.222;2023-02-15T08:48:48;21.70;61.60
2995;DHT22;35277;49.890;8.222;2023-02-15T08:51:18;21.70;61.50
2995;DHT22;35277;49.890;8.222;2023-02-15T08:53:47;21.70;61.50
2995;DHT22;35277;49.890;8.222;2023-02-15T08:56:17;21.70;61.60
2995;DHT22;35277;49.890;8.222;2023-02-15T08:58:45;21.70;61.60
2995;DHT22;35277;49.890;8.222;2023-02-15T09:01:15;21.70;61.50
2995;DHT22;35277;49.890;8.222;2023-02-15T09:03:47;21.80;61.60
2995;DHT22;35277;49.890;8.222;2023-02-15T09:06:16;21.70;61.60
2995;DHT22;35277;49.890;8.222;2023-02-15T09:08:44;21.80;61.60
2995;DHT22;35277;49.890;8.222;2023-02-15T09:11:13;21.80;61.60
2995;DHT22;35277;49.890;8.222;2023-02-15T09:13:43;21.80;61.60
2995;DHT22;35277;49.890;8.222;2023-02-15T09:16:11;21.80;61.60
2995;DHT22;35277;49.890;8.222;2023-02-15T09:18:39;21.80;61.60
2995;DHT22;35277;49.890;8.222;2023-02-15T09:21:10;21.80;61.60
2995;DHT22;35277;49.890;8.222;2023-02-15T09:23:40;21.80;61.60
2995;DHT22;35277;49.890;8.222;2023-02-15T09:26:10;21.80;61.60
2995;DHT22;35277;49.890;8.222;2023-02-15T09:28:38;21.80;61.60
2995;DHT22;35277;49.890;8.222;2023-02-15T09:31:08;21.80;61.60
2995;DHT22;35277;49.890;8.222;2023-02-15T09:33:38;21.80;61.60
2995;DHT22;35277;49.890;8.222;2023-02-15T09:36:16;21.80;61.60
2995;DHT22;35277;49.890;8.222;2023-02-15T09:38:45;21.80;61.60
2995;DHT22;35277;49.890;8.222;2023-02-15T09:41:30;21.80;61.60
2995;DHT22;35277;49.890;8.222;2023-02-15T09:44:14;21.80;61.60
2995;DHT22;35277;49.890;8.222;2023-02-15T09:49:47;21.80;61.60
2995;DHT22;35277;49.890;8.222;2023-02-15T09:52:30;21.80;61.60
2995;DHT22;35277;49.890;8.222;2023-02-15T09:55:12;21.80;61.60
2995;DHT22;35277;49.890;8.222;2023-02-15T09:57:48;21.80;61.60
2995;DHT22;35277;49.890;8.222;2023-02-15T10:00:24;21.80;61.50
2995;DHT22;35277;49.890;8.222;2023-02-15T10:03:09;21.80;61.60
2995;DHT22;35277;49.890;8.222;2023-02-15T10:05:47;21.80;61.50
2995;DHT22;35277;49.890;8.222;2023-02-15T10:08:46;21.80;61.50
2995;DHT22;35277;49.890;8.222;2023-02-15T10:11:19;21.80;61.50
2995;DHT22;35277;49.890;8.222;2023-02-15T10:17:21;21.80;61.40
2995;DHT22;35277;49.890;8.222;2023-02-15T10:20:04;21.80;61.30
2995;DHT22;35277;49.890;8.222;2023-02-15T10:22:47;21.80;61.30
2995;DHT22;35277;49.890;8.222;2023-02-15T10:25:31;21.80;61.30
2995;DHT22;35277;49.890;8.222;2023-02-15T10:28:04;21.80;61.20
2995;DHT22;35277;49.890;8.222;2023-02-15T10:30:41;21.80;61.20
2995;DHT22;35277;49.890;8.222;2023-02-15T10:33:16;21.80;61.20
2995;DHT22;35277;49.890;8.222;2023-02-15T10:35:55;21.80;61.20
2995;DHT22;35277;49.890;8.222;2023-02-15T10:38:33;21.80;61.10
2995;DHT22;35277;49.890;8.222;2023-02-15T10:41:17;21.80;61.10
2995;DHT22;35277;49.890;8.222;2023-02-15T10:44:03;21.80;61.10
2995;DHT22;35277;49.890;8.222;2023-02-15T10:46:45;21.80;61.10
2995;DHT22;35277;49.890;8.222;2023-02-15T10:49:26;21.80;61.10
2995;DHT22;35277;49.890;8.222;2023-02-15T10:52:15;21.80;61.10
2995;DHT22;35277;49.890;8.222;2023-02-15T10:54:49;21.80;61.10
2995;DHT22;35277;49.890;8.222;2023-02-15T10:57:27;21.80;61.10
2995;DHT22;35277;49.890;8.222;2023-02-15T11:00:05;21.80;61.10
2995;DHT22;35277;49.890;8.222;2023-02-15T11:05:35;21.80;61.00
2995;DHT22;35277;49.890;8.222;2023-02-15T11:08:08;21.80;60.80
2995;DHT22;35277;49.890;8.222;2023-02-15T11:10:39;21.70;60.70
2995;DHT22;35277;49.890;8.222;2023-02-15T11:13:14;21.70;60.60
2995;DHT22;35277;49.890;8.222;2023-02-15T11:15:47;21.70;60.50
2995;DHT22;35277;49.890;8.222;2023-02-15T11:18:21;21.70;60.40
2995;DHT22;35277;49.890;8.222;2023-02-15T11:20:54;21.70;60.30
2995;DHT22;35277;49.890;8.222;2023-02-15T11:23:24;21.80;60.40
2995;DHT22;35277;49.890;8.222;2023-02-15T11:25:56;21.80;60.40
2995;DHT22;35277;49.890;8.222;2023-02-15T11:28:30;21.80;60.30
2995;DHT22;35277;49.890;8.222;2023-02-15T11:31:02;21.80;60.30
2995;DHT22;35277;49.890;8.222;2023-02-15T11:33:43;21.80;60.30
2995;DHT22;35277;49.890;8.222;2023-02-15T11:36:16;21.80;60.20
2995;DHT22;35277;49.890;8.222;2023-02-15T11:38:46;21.80;60.30
2995;DHT22;35277;49.890;8.222;2023-02-15T11:41:19;21.80;60.20
2995;DHT22;35277;49.890;8.222;2023-02-15T11:43:53;21.80;60.20
2995;DHT22;35277;49.890;8.222;2023-02-15T11:46:22;21.80;60.20
2995;DHT22;35277;49.890;8.222;2023-02-15T11:48:50;21.80;60.20
2995;DHT22;35277;49.890;8.222;2023-02-15T11:51:21;21.80;60.20
2995;DHT22;35277;49.890;8.222;2023-02-15T11:53:50;21.80;60.20
2995;DHT22;35277;49.890;8.222;2023-02-15T11:56:21;21.80;60.20
2995;DHT22;35277;49.890;8.222;2023-02-15T11:58:54;21.80;60.30
2995;DHT22;35277;49.890;8.222;2023-02-15T12:01:31;21.80;60.20
2995;DHT22;35277;49.890;8.222;2023-02-15T12:04:01;21.90;60.30
2995;DHT22;35277;49.890;8.222;2023-02-15T12:06:34;21.90;60.30
2995;DHT22;35277;49.890;8.222;2023-02-15T12:09:09;21.90;60.30
2995;DHT22;35277;49.890;8.222;2023-02-15T12:11:41;21.90;60.30
2995;DHT22;35277;49.890;8.222;2023-02-15T12:14:11;21.90;60.40
2995;DHT22;35277;49.890;8.222;2023-02-15T12:16:43;21.90;60.40
2995;DHT22;35277;49.890;8.222;2023-02-15T12:19:23;21.90;60.40
2995;DHT22;35277;49.890;8.222;2023-02-15T12:21:52;21.90;60.40
2995;DHT22;35277;49.890;8.222;2023-02-15T12:24:22;21.90;60.40
2995;DHT22;35277;49.890;8.222;2023-02-15T12:26:59;21.90;60.40
2995;DHT22;35277;49.890;8.222;2023-02-15T12:29:31;21.90;60.50
2995;DHT22;35277;49.890;8.222;2023-02-15T12:32:03;21.90;60.40
2995;DHT22;35277;49.890;8.222;2023-02-15T12:34:35;21.90;60.40
2995;DHT22;35277;49.890;8.222;2023-02-15T12:37:10;21.90;60.40
2995;DHT22;35277;49.890;8.222;2023-02-15T12:39:52;21.90;60.40
2995;DHT22;35277;49.890;8.222;2023-02-15T12:42:20;21.90;60.40
2995;DHT22;35277;49.890;8.222;2023-02-15T12:44:58;21.90;60.40
2995;DHT22;35277;49.890;8.222;2023-02-15T12:47:26;21.90;60.40
2995;DHT22;35277;49.890;8.222;2023-02-15T12:50:08;21.90;60.40
2995;DHT22;35277;49.890;8.222;2023-02-15T12:52:45;21.90;60.40
2995;DHT22;35277;49.890;8.222;2023-02-15T12:55:20;21.90;60.40
2995;DHT22;35277;49.890;8.222;2023-02-15T12:57:48;21.90;60.40
2995;DHT22;35277;49.890;8.222;2023-02-15T13:00:29;21.90;60.40
2995;DHT22;35277;49.890;8.222;2023-02-15T13:02:59;21.90;60.40
2995;DHT22;35277;49.890;8.222;2023-02-15T13:05:32;21.90;60.40
2995;DHT22;35277;49.890;8.222;2023-02-15T13:08:03;21.90;60.40
2995;DHT22;35277;49.890;8.222;2023-02-15T13:10:39;21.90;60.40
2995;DHT22;35277;49.890;8.222;2023-02-15T13:13:10;21.90;60.40
2995;DHT22;35277;49.890;8.222;2023-02-15T13:15:41;21.90;60.40
2995;DHT22;35277;49.890;8.222;2023-02-15T13:18:14;21.90;60.40
2995;DHT22;35277;49.890;8.222;2023-02-15T13:20:44;21.90;60.40
2995;DHT22;35277;49.890;8.222;2023-02-15T13:23:24;21.90;60.40
2995;DHT22;35277;49.890;8.222;2023-02-15T13:25:55;21.90;60.40
2995;DHT22;35277;49.890;8.222;2023-02-15T13:28:27;21.90;60.40
2995;DHT22;35277;49.890;8.222;2023-02-15T13:31:00;21.90;60.40
2995;DHT22;35277;49.890;8.222;2023-02-15T13:33:32;21.90;60.40
2995;DHT22;35277;49.890;8.222;2023-02-15T13:36:05;21.90;60.40
2995;DHT22;35277;49.890;8.222;2023-02-15T13:38:49;21.90;60.40
2995;DHT22;35277;49.890;8.222;2023-02-15T13:41:21;21.90;60.40
2995;DHT22;35277;49.890;8.222;2023-02-15T13:43:59;21.90;60.40
2995;DHT22;35277;49.890;8.222;2023-02-15T13:46:47;21.90;60.50
2995;DHT22;35277;49.890;8.222;2023-02-15T13:49:31;21.90;60.50
2995;DHT22;35277;49.890;8.222;2023-02-15T13:52:08;21.90;60.40
2995;DHT22;35277;49.890;8.222;2023-02-15T13:54:53;21.90;60.40
2995;DHT22;35277;49.890;8.222;2023-02-15T13:57:41;21.80;60.40
2995;DHT22;35277;49.890;8.222;2023-02-15T14:00:20;21.90;60.50
2995;DHT22;35277;49.890;8.222;2023-02-15T14:03:12;21.80;60.40
2995;DHT22;35277;49.890;8.222;2023-02-15T14:06:01;21.80;60.40
2995;DHT22;35277;49.890;8.222;2023-02-15T14:08:43;21.90;60.50
2995;DHT22;35277;49.890;8.222;2023-02-15T14:11:19;21.80;60.40
2995;DHT22;35277;49.890;8.222;2023-02-15T14:14:09;21.80;60.40
2995;DHT22;35277;49.890;8.222;2023-02-15T14:16:45;21.80;60.40
2995;DHT22;35277;49.890;8.222;2023-02-15T14:19:37;21.80;60.40
2995;DHT22;35277;49.890;8.222;2023-02-15T14:22:13;21.90;60.50
2995;DHT22;35277;49.890;8.222;2023-02-15T14:24:52;21.80;60.40
2995;DHT22;35277;49.890;8.222;2023-02-15T14:27:27;21.80;60.40
2995;DHT22;35277;49.890;8.222;2023-02-15T14:30:03;21.80;60.50
2995;DHT22;35277;49.890;8.222;2023-02-15T14:32:34;21.80;60.50
2995;DHT22;35277;49.890;8.222;2023-02-15T14:35:13;21.80;60.50
2995;DHT22;35277;49.890;8.222;2023-02-15T14:37:46;21.80;61.30
2995;DHT22;35277;49.890;8.222;2023-02-15T14:40:26;21.80;60.50
2995;DHT22;35277;49.890;8.222;2023-02-15T14:43:21;21.80;60.50
2995;DHT22;35277;49.890;8.222;2023-02-15T14:45:54;21.80;60.50
2995;DHT22;35277;49.890;8.222;2023-02-15T14:48:25;21.80;60.50
2995;DHT22;35277;49.890;8.222;2023-02-15T14:50:58;21.80;60.50
2995;DHT22;35277;49.890;8.222;2023-02-15T14:53:37;21.80;60.60
2995;DHT22;35277;49.890;8.222;2023-02-15T14:56:22;21.80;60.60
2995;DHT22;35277;49.890;8.222;2023-02-15T14:58:59;21.80;60.50
2995;DHT22;35277;49.890;8.222;2023-02-15T15:01:29;21.80;60.50
2995;DHT22;35277;49.890;8.222;2023-02-15T15:03:59;21.70;60.40
2995;DHT22;35277;49.890;8.222;2023-02-15T15:06:31;21.70;60.40
2995;DHT22;35277;49.890;8.222;2023-02-15T15:09:05;21.80;60.50
2995;DHT22;35277;49.890;8.222;2023-02-15T15:11:40;21.70;60.40
2995;DHT22;35277;49.890;8.222;2023-02-15T15:16:53;21.70;60.40
2995;DHT22;35277;49.890;8.222;2023-02-15T15:22:35;21.70;60.40
2995;DHT22;35277;49.890;8.222;2023-02-15T15:25:09;21.70;60.30
2995;DHT22;35277;49.890;8.222;2023-02-15T15:27:40;21.70;60.40
2995;DHT22;35277;49.890;8.222;2023-02-15T15:33:47;21.70;60.40
2995;DHT22;35277;49.890;8.222;2023-02-15T15:40:00;21.70;60.30
2995;DHT22;35277;49.890;8.222;2023-02-15T15:42:43;21.70;60.40
2995;DHT22;35277;49.890;8.222;2023-02-15T15:45:57;21.70;60.30
2995;DHT22;35277;49.890;8.222;2023-02-15T15:48:32;21.70;60.30
2995;DHT22;35277;49.890;8.222;2023-02-15T15:51:04;21.70;60.30
2995;DHT22;35277;49.890;8.222;2023-02-15T15:53:38;21.70;60.30
2995;DHT22;35277;49.890;8.222;2023-02-15T15:56:12;21.70;60.30
2995;DHT22;35277;49.890;8.222;2023-02-15T15:58:44;21.70;60.20
2995;DHT22;35277;49.890;8.222;2023-02-15T16:01:12;21.70;60.20
2995;DHT22;35277;49.890;8.222;2023-02-15T16:03:49;21.70;60.20
2995;DHT22;35277;49.890;8.222;2023-02-15T16:06:29;21.70;60.20
2995;DHT22;35277;49.890;8.222;2023-02-15T16:09:08;21.70;60.20
2995;DHT22;35277;49.890;8.222;2023-02-15T16:11:40;21.70;60.20
2995;DHT22;35277;49.890;8.222;2023-02-15T16:14:12;21.70;60.20
2995;DHT22;35277;49.890;8.222;2023-02-15T16:16:42;21.70;60.20
2995;DHT22;35277;49.890;8.222;2023-02-15T16:19:19;21.70;60.20
2995;DHT22;35277;49.890;8.222;2023-02-15T16:21:48;21.70;60.20
2995;DHT22;35277;49.890;8.222;2023-02-15T16:24:25;21.70;60.10
2995;DHT22;35277;49.890;8.222;2023-02-15T16:27:30;21.70;60.20
2995;DHT22;35277;49.890;8.222;2023-02-15T16:30:21;21.70;60.20
2995;DHT22;35277;49.890;8.222;2023-02-15T16:32:52;21.70;60.20
2995;DHT22;35277;49.890;8.222;2023-02-15T16:35:21;21.70;60.10
2995;DHT22;35277;49.890;8.222;2023-02-15T16:37:49;21.70;60.20
2995;DHT22;35277;49.890;8.222;2023-02-15T16:40:32;21.70;60.10
2995;DHT22;35277;49.890;8.222;2023-02-15T16:43:04;21.70;60.10
2995;DHT22;35277;49.890;8.222;2023-02-15T16:45:34;21.70;60.10